Route Details

Aircraft Information
Group: North America Fleet
Types: B738, B752, B762, B763
Route Data
Distance: 1492nm
Duration: 0h 00m
Origin METAR: KRFD 140054Z 16007KT 10SM FEW150 SCT250 20/03 A2984 RMK AO2 SLP106 T02000033
Dest. METAR: KSMF 140053Z 11004KT 10SM BKN070 OVC085 09/07 A2998 RMK AO2 SLP151 P0001 T00940067
Freight Data
(for Apr 14, 2024)
Load Factor:
38%
Manifested Cargo: 47,891lbs
Financial History
Total Freight: 360,305lbs
Average Load: 0lbs/flt
Fuel Used: 186,403lbs
Avg. Fuel Used: 0lbs/flt
Fuel Expense: $127,763
Avg. Fuel Expense: $0
Avg. Fuel Cost: $0/lbs
Total Gross Income: $479,374
Pilot Pay: $1,004
Total Expenses: $52,084
Total Revenue: $294,149
Average Revenue: $0

Capitol Logistics 488




KRFD
Chicago/Rockford International Airport
Rockford, Illinois
KSMF
Sacramento International Airport
Sacramento, California